Mc Clellan-Palomar Airport
KCRQ : now visible

Airfield :











YOU CAN JOIN US ON...

 
LOGIN :

Register | Disclaimer

   EN    FR    IT 

 









Legend :    VFR   Marginal VFR   IFR   Intensive IFR   Very Intensive IFR
Visi :
Ceiling :
>= 8 km
>= 3000ft
5 to 8 km
1000 to 3000 ft
1500m to 5 km
500 to 1000 ft
800 to 1500m
200 to 500 ft
< 800m
< 200 ft
Symbols :   Thunderstorms  Fog  Heavy snow  Heavy precipitations  Wind > 20 kt






- Airport Elevation : 331 ft


KCRQ - Mc Clellan-Palomar

CURRENT METAR :
  • 042153Z 23008KT 10SM CLR 22/16 A2996 RMK AO2 SLP143 T02220156

EXPIRED METARs :
  • 042053Z 24009KT 10SM CLR 22/16 A2998 RMK AO2 SLP148 T02170156 58003
  • 041953Z 23009KT 10SM FEW015 22/16 A2998 RMK AO2 SLP150 T02170156

TAF KCRQ
Valid from the 04 at 18:00 until the 05 at 18:00 UTC


041736Z 0418/0518 23008KT P6SM FEW010
FM050300 21005KT P6SM OVC009
FM050700 16005KT 6SM BR OVC006
FM051530 17005KT P6SM OVC009
FM051700 22007KT P6SM SCT010
KZLA FIR / North America



MET'MAP, your aeronautical weather chart ! - Copyright ORBIFLY December 2007 - Disclaimer

ORBIFLY MET'MAP TEAM :

Programming & Development : Alexandra Zaïnal
Concept & original design : Baudouin d'Aumeries
Assistance for programming : Marc-Olivier Méhu
Technical & hardware support : Manuel Goepfert

Contact : metmap@orbifly.com




SOURCES & CREDITS :

   NOAA       Earth
Advisory